sensor_id;sensor_type;location;lat;lon;timestamp;P1;durP1;ratioP1;P2;durP2;ratioP2
5285;SDS011;2665;53.112;7.358;2023-12-20T00:01:37;3.87;;;1.10;;
5285;SDS011;2665;53.112;7.358;2023-12-20T00:04:03;3.67;;;1.10;;
5285;SDS011;2665;53.112;7.358;2023-12-20T00:06:29;3.30;;;1.10;;
5285;SDS011;2665;53.112;7.358;2023-12-20T00:08:55;7.83;;;2.17;;
5285;SDS011;2665;53.112;7.358;2023-12-20T00:11:23;12.60;;;1.20;;
5285;SDS011;2665;53.112;7.358;2023-12-20T00:13:49;4.90;;;1.00;;
5285;SDS011;2665;53.112;7.358;2023-12-20T00:16:15;6.37;;;1.10;;
5285;SDS011;2665;53.112;7.358;2023-12-20T00:18:41;4.03;;;1.63;;
5285;SDS011;2665;53.112;7.358;2023-12-20T00:21:07;13.20;;;1.43;;
5285;SDS011;2665;53.112;7.358;2023-12-20T00:23:33;8.90;;;1.27;;
5285;SDS011;2665;53.112;7.358;2023-12-20T00:25:59;4.70;;;1.57;;
5285;SDS011;2665;53.112;7.358;2023-12-20T00:28:25;14.90;;;2.00;;
5285;SDS011;2665;53.112;7.358;2023-12-20T00:30:51;4.23;;;1.00;;
5285;SDS011;2665;53.112;7.358;2023-12-20T00:33:17;10.00;;;1.30;;
5285;SDS011;2665;53.112;7.358;2023-12-20T00:35:44;4.60;;;1.10;;
5285;SDS011;2665;53.112;7.358;2023-12-20T00:38:10;6.37;;;1.60;;
5285;SDS011;2665;53.112;7.358;2023-12-20T00:40:36;2.80;;;1.30;;
5285;SDS011;2665;53.112;7.358;2023-12-20T00:43:02;4.53;;;1.10;;
5285;SDS011;2665;53.112;7.358;2023-12-20T00:45:28;8.20;;;1.30;;
5285;SDS011;2665;53.112;7.358;2023-12-20T00:47:54;16.20;;;1.60;;
5285;SDS011;2665;53.112;7.358;2023-12-20T00:50:20;3.53;;;1.10;;
5285;SDS011;2665;53.112;7.358;2023-12-20T00:52:47;6.57;;;1.47;;
5285;SDS011;2665;53.112;7.358;2023-12-20T00:55:13;4.50;;;1.00;;
5285;SDS011;2665;53.112;7.358;2023-12-20T00:57:39;13.90;;;1.40;;
5285;SDS011;2665;53.112;7.358;2023-12-20T01:00:05;6.93;;;1.43;;
5285;SDS011;2665;53.112;7.358;2023-12-20T01:02:34;8.27;;;0.90;;
5285;SDS011;2665;53.112;7.358;2023-12-20T01:05:00;4.27;;;1.00;;
5285;SDS011;2665;53.112;7.358;2023-12-20T01:07:26;2.93;;;1.50;;
5285;SDS011;2665;53.112;7.358;2023-12-20T01:09:52;5.67;;;1.37;;
5285;SDS011;2665;53.112;7.358;2023-12-20T01:12:18;7.53;;;1.10;;
5285;SDS011;2665;53.112;7.358;2023-12-20T01:14:45;11.73;;;1.83;;
5285;SDS011;2665;53.112;7.358;2023-12-20T01:17:11;4.20;;;1.43;;
5285;SDS011;2665;53.112;7.358;2023-12-20T01:19:37;9.13;;;1.17;;
5285;SDS011;2665;53.112;7.358;2023-12-20T01:22:03;4.87;;;1.30;;
5285;SDS011;2665;53.112;7.358;2023-12-20T01:24:30;3.03;;;1.27;;
5285;SDS011;2665;53.112;7.358;2023-12-20T01:26:56;6.70;;;1.20;;
5285;SDS011;2665;53.112;7.358;2023-12-20T01:29:22;9.20;;;1.43;;
5285;SDS011;2665;53.112;7.358;2023-12-20T01:31:48;3.70;;;1.20;;
5285;SDS011;2665;53.112;7.358;2023-12-20T01:34:14;8.40;;;2.00;;
5285;SDS011;2665;53.112;7.358;2023-12-20T01:36:40;6.30;;;1.43;;
5285;SDS011;2665;53.112;7.358;2023-12-20T01:39:06;10.00;;;1.67;;
5285;SDS011;2665;53.112;7.358;2023-12-20T01:41:32;4.00;;;1.50;;
5285;SDS011;2665;53.112;7.358;2023-12-20T01:43:58;17.63;;;2.00;;
5285;SDS011;2665;53.112;7.358;2023-12-20T01:46:24;4.80;;;1.37;;
5285;SDS011;2665;53.112;7.358;2023-12-20T01:48:50;8.43;;;1.40;;
5285;SDS011;2665;53.112;7.358;2023-12-20T01:51:17;6.43;;;1.40;;
5285;SDS011;2665;53.112;7.358;2023-12-20T01:53:43;7.90;;;0.97;;
5285;SDS011;2665;53.112;7.358;2023-12-20T01:56:09;3.17;;;1.67;;
5285;SDS011;2665;53.112;7.358;2023-12-20T01:58:37;8.70;;;1.80;;
5285;SDS011;2665;53.112;7.358;2023-12-20T02:01:04;6.77;;;1.60;;
5285;SDS011;2665;53.112;7.358;2023-12-20T02:03:31;5.80;;;1.50;;
5285;SDS011;2665;53.112;7.358;2023-12-20T02:05:57;19.20;;;1.63;;
5285;SDS011;2665;53.112;7.358;2023-12-20T02:08:23;5.73;;;2.03;;
5285;SDS011;2665;53.112;7.358;2023-12-20T02:10:49;11.77;;;1.90;;
5285;SDS011;2665;53.112;7.358;2023-12-20T02:13:15;2.57;;;1.60;;
5285;SDS011;2665;53.112;7.358;2023-12-20T02:15:41;19.57;;;1.80;;
5285;SDS011;2665;53.112;7.358;2023-12-20T02:18:08;6.10;;;1.30;;
5285;SDS011;2665;53.112;7.358;2023-12-20T02:20:34;9.00;;;2.43;;
5285;SDS011;2665;53.112;7.358;2023-12-20T02:23:00;3.20;;;0.90;;
5285;SDS011;2665;53.112;7.358;2023-12-20T02:25:26;8.57;;;1.80;;
5285;SDS011;2665;53.112;7.358;2023-12-20T02:27:52;8.17;;;1.57;;
5285;SDS011;2665;53.112;7.358;2023-12-20T02:30:18;9.60;;;1.50;;
5285;SDS011;2665;53.112;7.358;2023-12-20T02:32:44;12.03;;;2.80;;
5285;SDS011;2665;53.112;7.358;2023-12-20T02:35:10;3.60;;;1.50;;
5285;SDS011;2665;53.112;7.358;2023-12-20T02:37:36;5.23;;;1.60;;
5285;SDS011;2665;53.112;7.358;2023-12-20T02:40:03;10.30;;;1.57;;
5285;SDS011;2665;53.112;7.358;2023-12-20T02:42:29;6.93;;;1.47;;
5285;SDS011;2665;53.112;7.358;2023-12-20T02:44:55;18.73;;;2.17;;
5285;SDS011;2665;53.112;7.358;2023-12-20T02:47:21;9.60;;;2.23;;
5285;SDS011;2665;53.112;7.358;2023-12-20T02:49:47;12.70;;;1.70;;
5285;SDS011;2665;53.112;7.358;2023-12-20T02:52:14;6.27;;;1.63;;
5285;SDS011;2665;53.112;7.358;2023-12-20T02:54:40;13.67;;;1.73;;
5285;SDS011;2665;53.112;7.358;2023-12-20T02:57:06;9.73;;;1.47;;
5285;SDS011;2665;53.112;7.358;2023-12-20T02:59:32;5.67;;;1.10;;
5285;SDS011;2665;53.112;7.358;2023-12-20T03:01:58;4.63;;;1.20;;
5285;SDS011;2665;53.112;7.358;2023-12-20T03:04:24;4.83;;;1.30;;
5285;SDS011;2665;53.112;7.358;2023-12-20T03:06:50;5.43;;;1.70;;
5285;SDS011;2665;53.112;7.358;2023-12-20T03:09:16;7.80;;;1.40;;
5285;SDS011;2665;53.112;7.358;2023-12-20T03:11:42;11.10;;;1.40;;
5285;SDS011;2665;53.112;7.358;2023-12-20T03:14:08;5.00;;;1.70;;
5285;SDS011;2665;53.112;7.358;2023-12-20T03:16:34;2.00;;;0.90;;
5285;SDS011;2665;53.112;7.358;2023-12-20T03:19:00;8.77;;;1.43;;
5285;SDS011;2665;53.112;7.358;2023-12-20T03:21:26;16.90;;;2.20;;
5285;SDS011;2665;53.112;7.358;2023-12-20T03:23:52;5.43;;;1.43;;
5285;SDS011;2665;53.112;7.358;2023-12-20T03:26:18;8.40;;;1.37;;
5285;SDS011;2665;53.112;7.358;2023-12-20T03:28:44;4.47;;;1.03;;
5285;SDS011;2665;53.112;7.358;2023-12-20T03:31:10;10.03;;;2.83;;
5285;SDS011;2665;53.112;7.358;2023-12-20T03:33:36;5.13;;;1.43;;
5285;SDS011;2665;53.112;7.358;2023-12-20T03:36:02;5.17;;;1.30;;
5285;SDS011;2665;53.112;7.358;2023-12-20T03:38:28;15.10;;;2.50;;
5285;SDS011;2665;53.112;7.358;2023-12-20T03:40:54;9.70;;;1.57;;
5285;SDS011;2665;53.112;7.358;2023-12-20T03:43:21;5.77;;;1.07;;
5285;SDS011;2665;53.112;7.358;2023-12-20T03:45:47;8.00;;;1.30;;
5285;SDS011;2665;53.112;7.358;2023-12-20T03:48:13;12.80;;;1.57;;
5285;SDS011;2665;53.112;7.358;2023-12-20T03:50:39;20.80;;;2.07;;
5285;SDS011;2665;53.112;7.358;2023-12-20T03:53:05;24.93;;;2.20;;
5285;SDS011;2665;53.112;7.358;2023-12-20T03:55:31;15.20;;;2.67;;
5285;SDS011;2665;53.112;7.358;2023-12-20T03:57:57;12.97;;;2.33;;
5285;SDS011;2665;53.112;7.358;2023-12-20T04:00:23;9.20;;;1.97;;
5285;SDS011;2665;53.112;7.358;2023-12-20T04:02:49;5.60;;;1.57;;
5285;SDS011;2665;53.112;7.358;2023-12-20T04:05:15;6.43;;;2.10;;
5285;SDS011;2665;53.112;7.358;2023-12-20T04:07:41;5.87;;;1.90;;
5285;SDS011;2665;53.112;7.358;2023-12-20T04:10:07;12.03;;;1.63;;
5285;SDS011;2665;53.112;7.358;2023-12-20T04:12:33;16.33;;;2.20;;
5285;SDS011;2665;53.112;7.358;2023-12-20T04:14:59;10.97;;;1.80;;
5285;SDS011;2665;53.112;7.358;2023-12-20T04:17:25;9.20;;;2.93;;
5285;SDS011;2665;53.112;7.358;2023-12-20T04:19:52;10.83;;;2.83;;
5285;SDS011;2665;53.112;7.358;2023-12-20T04:22:18;13.77;;;2.23;;
5285;SDS011;2665;53.112;7.358;2023-12-20T04:24:44;12.03;;;1.83;;
5285;SDS011;2665;53.112;7.358;2023-12-20T04:27:10;10.90;;;1.63;;
5285;SDS011;2665;53.112;7.358;2023-12-20T04:29:36;10.90;;;2.07;;
5285;SDS011;2665;53.112;7.358;2023-12-20T04:32:03;15.97;;;2.43;;
5285;SDS011;2665;53.112;7.358;2023-12-20T04:34:29;10.33;;;2.03;;
5285;SDS011;2665;53.112;7.358;2023-12-20T04:36:55;7.77;;;2.50;;
5285;SDS011;2665;53.112;7.358;2023-12-20T04:39:21;14.23;;;2.67;;
5285;SDS011;2665;53.112;7.358;2023-12-20T04:41:47;20.73;;;2.73;;
5285;SDS011;2665;53.112;7.358;2023-12-20T04:44:13;14.40;;;2.20;;
5285;SDS011;2665;53.112;7.358;2023-12-20T04:46:39;7.90;;;2.10;;
5285;SDS011;2665;53.112;7.358;2023-12-20T04:49:06;7.17;;;2.47;;
5285;SDS011;2665;53.112;7.358;2023-12-20T04:51:35;12.40;;;2.60;;
5285;SDS011;2665;53.112;7.358;2023-12-20T04:54:01;9.27;;;1.97;;
5285;SDS011;2665;53.112;7.358;2023-12-20T04:56:27;8.73;;;2.07;;
5285;SDS011;2665;53.112;7.358;2023-12-20T04:58:53;8.30;;;1.63;;
5285;SDS011;2665;53.112;7.358;2023-12-20T05:01:19;11.20;;;2.23;;
5285;SDS011;2665;53.112;7.358;2023-12-20T05:03:46;10.90;;;1.93;;
5285;SDS011;2665;53.112;7.358;2023-12-20T05:06:12;5.20;;;1.57;;
5285;SDS011;2665;53.112;7.358;2023-12-20T05:08:39;12.67;;;2.10;;
5285;SDS011;2665;53.112;7.358;2023-12-20T05:11:05;16.23;;;2.43;;
5285;SDS011;2665;53.112;7.358;2023-12-20T05:13:32;11.43;;;3.00;;
5285;SDS011;2665;53.112;7.358;2023-12-20T05:15:58;8.43;;;2.60;;
5285;SDS011;2665;53.112;7.358;2023-12-20T05:18:24;9.80;;;1.73;;
5285;SDS011;2665;53.112;7.358;2023-12-20T05:20:50;8.97;;;2.23;;
5285;SDS011;2665;53.112;7.358;2023-12-20T05:23:17;12.37;;;2.67;;
5285;SDS011;2665;53.112;7.358;2023-12-20T05:25:43;19.87;;;2.80;;
5285;SDS011;2665;53.112;7.358;2023-12-20T05:28:09;17.57;;;2.57;;
5285;SDS011;2665;53.112;7.358;2023-12-20T05:30:35;14.23;;;2.80;;
5285;SDS011;2665;53.112;7.358;2023-12-20T05:33:01;8.40;;;1.60;;
5285;SDS011;2665;53.112;7.358;2023-12-20T05:35:27;9.67;;;2.13;;
5285;SDS011;2665;53.112;7.358;2023-12-20T05:37:53;25.53;;;3.13;;
5285;SDS011;2665;53.112;7.358;2023-12-20T05:40:19;10.50;;;2.57;;
5285;SDS011;2665;53.112;7.358;2023-12-20T05:42:45;12.30;;;2.50;;
5285;SDS011;2665;53.112;7.358;2023-12-20T05:45:12;11.50;;;2.47;;
5285;SDS011;2665;53.112;7.358;2023-12-20T05:47:38;14.10;;;2.60;;
5285;SDS011;2665;53.112;7.358;2023-12-20T05:50:04;11.70;;;2.10;;
5285;SDS011;2665;53.112;7.358;2023-12-20T05:52:31;10.70;;;2.20;;
5285;SDS011;2665;53.112;7.358;2023-12-20T05:54:57;10.37;;;2.17;;
5285;SDS011;2665;53.112;7.358;2023-12-20T05:57:26;17.03;;;2.70;;
5285;SDS011;2665;53.112;7.358;2023-12-20T05:59:52;11.20;;;1.83;;
5285;SDS011;2665;53.112;7.358;2023-12-20T06:02:18;23.90;;;3.30;;
5285;SDS011;2665;53.112;7.358;2023-12-20T06:04:44;11.10;;;2.00;;
5285;SDS011;2665;53.112;7.358;2023-12-20T06:07:13;13.97;;;2.13;;
5285;SDS011;2665;53.112;7.358;2023-12-20T06:09:39;11.67;;;2.53;;
5285;SDS011;2665;53.112;7.358;2023-12-20T06:12:06;11.80;;;2.43;;
5285;SDS011;2665;53.112;7.358;2023-12-20T06:14:33;17.20;;;3.17;;
5285;SDS011;2665;53.112;7.358;2023-12-20T06:16:59;8.17;;;2.00;;
5285;SDS011;2665;53.112;7.358;2023-12-20T06:19:26;11.97;;;1.77;;
5285;SDS011;2665;53.112;7.358;2023-12-20T06:21:52;9.60;;;2.30;;
5285;SDS011;2665;53.112;7.358;2023-12-20T06:24:18;14.87;;;3.20;;
5285;SDS011;2665;53.112;7.358;2023-12-20T06:26:44;14.47;;;2.60;;
5285;SDS011;2665;53.112;7.358;2023-12-20T06:29:10;12.53;;;3.23;;
5285;SDS011;2665;53.112;7.358;2023-12-20T06:31:36;7.10;;;2.40;;
5285;SDS011;2665;53.112;7.358;2023-12-20T06:34:02;8.40;;;2.90;;
5285;SDS011;2665;53.112;7.358;2023-12-20T06:36:28;15.27;;;2.93;;
5285;SDS011;2665;53.112;7.358;2023-12-20T06:38:54;12.73;;;1.80;;
5285;SDS011;2665;53.112;7.358;2023-12-20T06:41:20;8.60;;;1.77;;
5285;SDS011;2665;53.112;7.358;2023-12-20T06:43:49;9.87;;;2.13;;
5285;SDS011;2665;53.112;7.358;2023-12-20T06:46:15;8.23;;;2.37;;
5285;SDS011;2665;53.112;7.358;2023-12-20T06:48:41;14.33;;;2.60;;
5285;SDS011;2665;53.112;7.358;2023-12-20T06:51:10;14.20;;;2.43;;
5285;SDS011;2665;53.112;7.358;2023-12-20T06:53:36;8.03;;;2.13;;
5285;SDS011;2665;53.112;7.358;2023-12-20T06:56:02;10.00;;;3.13;;
5285;SDS011;2665;53.112;7.358;2023-12-20T06:58:28;8.87;;;2.30;;
5285;SDS011;2665;53.112;7.358;2023-12-20T07:00:55;11.47;;;1.93;;
5285;SDS011;2665;53.112;7.358;2023-12-20T07:03:21;9.60;;;2.43;;
5285;SDS011;2665;53.112;7.358;2023-12-20T07:05:47;6.20;;;2.60;;
5285;SDS011;2665;53.112;7.358;2023-12-20T07:08:13;10.33;;;2.43;;
5285;SDS011;2665;53.112;7.358;2023-12-20T07:10:40;13.67;;;2.60;;
5285;SDS011;2665;53.112;7.358;2023-12-20T07:13:06;20.93;;;3.43;;
5285;SDS011;2665;53.112;7.358;2023-12-20T07:15:33;13.13;;;3.10;;
5285;SDS011;2665;53.112;7.358;2023-12-20T07:17:59;23.53;;;4.17;;
5285;SDS011;2665;53.112;7.358;2023-12-20T07:20:25;14.70;;;2.30;;
5285;SDS011;2665;53.112;7.358;2023-12-20T07:22:51;11.27;;;2.07;;
5285;SDS011;2665;53.112;7.358;2023-12-20T07:25:17;13.97;;;2.60;;
5285;SDS011;2665;53.112;7.358;2023-12-20T07:27:45;9.90;;;2.93;;
5285;SDS011;2665;53.112;7.358;2023-12-20T07:30:11;13.40;;;3.30;;
5285;SDS011;2665;53.112;7.358;2023-12-20T07:32:37;4.03;;;1.60;;
5285;SDS011;2665;53.112;7.358;2023-12-20T07:35:03;11.30;;;2.40;;
5285;SDS011;2665;53.112;7.358;2023-12-20T07:37:30;16.43;;;2.93;;
5285;SDS011;2665;53.112;7.358;2023-12-20T07:39:56;18.77;;;3.17;;
5285;SDS011;2665;53.112;7.358;2023-12-20T07:42:22;8.40;;;2.30;;
5285;SDS011;2665;53.112;7.358;2023-12-20T07:44:48;12.90;;;2.33;;
5285;SDS011;2665;53.112;7.358;2023-12-20T07:47:14;13.57;;;2.57;;
5285;SDS011;2665;53.112;7.358;2023-12-20T07:49:44;13.37;;;3.47;;
5285;SDS011;2665;53.112;7.358;2023-12-20T07:52:10;16.60;;;2.40;;
5285;SDS011;2665;53.112;7.358;2023-12-20T07:54:36;16.63;;;2.40;;
5285;SDS011;2665;53.112;7.358;2023-12-20T07:57:02;11.13;;;2.00;;
5285;SDS011;2665;53.112;7.358;2023-12-20T07:59:28;5.40;;;1.57;;
5285;SDS011;2665;53.112;7.358;2023-12-20T08:01:54;16.10;;;2.57;;
5285;SDS011;2665;53.112;7.358;2023-12-20T08:04:20;8.40;;;2.10;;
5285;SDS011;2665;53.112;7.358;2023-12-20T08:06:47;12.70;;;2.47;;
5285;SDS011;2665;53.112;7.358;2023-12-20T08:09:13;21.63;;;2.97;;
5285;SDS011;2665;53.112;7.358;2023-12-20T08:11:39;14.10;;;2.63;;
5285;SDS011;2665;53.112;7.358;2023-12-20T08:14:05;25.47;;;2.40;;
5285;SDS011;2665;53.112;7.358;2023-12-20T08:16:31;12.70;;;2.40;;
5285;SDS011;2665;53.112;7.358;2023-12-20T08:18:57;9.13;;;2.30;;
5285;SDS011;2665;53.112;7.358;2023-12-20T08:21:23;7.20;;;2.40;;
5285;SDS011;2665;53.112;7.358;2023-12-20T08:23:49;13.73;;;2.50;;
5285;SDS011;2665;53.112;7.358;2023-12-20T08:26:18;15.20;;;2.80;;
5285;SDS011;2665;53.112;7.358;2023-12-20T08:28:45;11.47;;;3.40;;
5285;SDS011;2665;53.112;7.358;2023-12-20T08:31:14;15.73;;;2.77;;
5285;SDS011;2665;53.112;7.358;2023-12-20T08:33:41;11.03;;;2.50;;
5285;SDS011;2665;53.112;7.358;2023-12-20T08:36:07;15.23;;;2.00;;
5285;SDS011;2665;53.112;7.358;2023-12-20T08:38:33;14.30;;;2.50;;
5285;SDS011;2665;53.112;7.358;2023-12-20T08:41:00;14.17;;;2.37;;
5285;SDS011;2665;53.112;7.358;2023-12-20T08:43:26;10.73;;;3.00;;
5285;SDS011;2665;53.112;7.358;2023-12-20T08:45:52;11.43;;;2.20;;
5285;SDS011;2665;53.112;7.358;2023-12-20T08:48:18;6.13;;;3.20;;
5285;SDS011;2665;53.112;7.358;2023-12-20T08:50:44;12.93;;;2.70;;
5285;SDS011;2665;53.112;7.358;2023-12-20T08:53:12;11.80;;;2.17;;
5285;SDS011;2665;53.112;7.358;2023-12-20T08:55:38;12.53;;;2.93;;
5285;SDS011;2665;53.112;7.358;2023-12-20T08:58:04;19.80;;;2.90;;
5285;SDS011;2665;53.112;7.358;2023-12-20T09:00:32;12.30;;;2.20;;
5285;SDS011;2665;53.112;7.358;2023-12-20T09:02:58;6.53;;;1.80;;
5285;SDS011;2665;53.112;7.358;2023-12-20T09:05:24;21.53;;;3.93;;
5285;SDS011;2665;53.112;7.358;2023-12-20T09:07:50;14.70;;;2.23;;
5285;SDS011;2665;53.112;7.358;2023-12-20T09:10:16;9.90;;;2.10;;
5285;SDS011;2665;53.112;7.358;2023-12-20T09:12:47;3.40;;;0.93;;
5285;SDS011;2665;53.112;7.358;2023-12-20T09:15:13;3.40;;;0.70;;
5285;SDS011;2665;53.112;7.358;2023-12-20T09:17:40;6.27;;;0.77;;
5285;SDS011;2665;53.112;7.358;2023-12-20T09:20:06;1.80;;;0.60;;
5285;SDS011;2665;53.112;7.358;2023-12-20T09:22:33;2.47;;;0.70;;
5285;SDS011;2665;53.112;7.358;2023-12-20T09:24:59;3.73;;;1.20;;
5285;SDS011;2665;53.112;7.358;2023-12-20T09:27:27;1.70;;;0.67;;
5285;SDS011;2665;53.112;7.358;2023-12-20T09:29:53;2.43;;;0.40;;
5285;SDS011;2665;53.112;7.358;2023-12-20T09:32:19;3.93;;;0.87;;
5285;SDS011;2665;53.112;7.358;2023-12-20T09:34:48;3.23;;;0.93;;
5285;SDS011;2665;53.112;7.358;2023-12-20T09:37:14;2.33;;;0.77;;
5285;SDS011;2665;53.112;7.358;2023-12-20T09:39:40;4.10;;;1.00;;
5285;SDS011;2665;53.112;7.358;2023-12-20T09:42:06;1.83;;;0.60;;
5285;SDS011;2665;53.112;7.358;2023-12-20T09:44:33;4.80;;;0.83;;
5285;SDS011;2665;53.112;7.358;2023-12-20T09:47:01;7.17;;;1.10;;
5285;SDS011;2665;53.112;7.358;2023-12-20T09:49:28;4.10;;;0.63;;
5285;SDS011;2665;53.112;7.358;2023-12-20T09:51:55;3.70;;;0.90;;
5285;SDS011;2665;53.112;7.358;2023-12-20T09:54:22;4.30;;;1.30;;
5285;SDS011;2665;53.112;7.358;2023-12-20T09:56:48;1.70;;;0.60;;
5285;SDS011;2665;53.112;7.358;2023-12-20T09:59:14;5.10;;;1.23;;
5285;SDS011;2665;53.112;7.358;2023-12-20T10:01:41;3.03;;;0.70;;
5285;SDS011;2665;53.112;7.358;2023-12-20T10:04:08;3.70;;;1.10;;
5285;SDS011;2665;53.112;7.358;2023-12-20T10:06:40;2.37;;;1.40;;
5285;SDS011;2665;53.112;7.358;2023-12-20T10:09:07;2.10;;;0.73;;
5285;SDS011;2665;53.112;7.358;2023-12-20T10:11:34;5.80;;;2.93;;
5285;SDS011;2665;53.112;7.358;2023-12-20T10:14:02;5.00;;;0.90;;
5285;SDS011;2665;53.112;7.358;2023-12-20T10:16:28;2.10;;;1.03;;
5285;SDS011;2665;53.112;7.358;2023-12-20T10:18:55;9.63;;;1.17;;
5285;SDS011;2665;53.112;7.358;2023-12-20T10:21:24;3.60;;;1.10;;
5285;SDS011;2665;53.112;7.358;2023-12-20T10:23:54;1.80;;;0.70;;
5285;SDS011;2665;53.112;7.358;2023-12-20T10:26:24;2.37;;;0.63;;
5285;SDS011;2665;53.112;7.358;2023-12-20T10:28:54;5.53;;;1.20;;
5285;SDS011;2665;53.112;7.358;2023-12-20T10:33:53;12.43;;;1.07;;
5285;SDS011;2665;53.112;7.358;2023-12-20T10:36:19;11.57;;;1.30;;
5285;SDS011;2665;53.112;7.358;2023-12-20T10:38:45;3.67;;;1.20;;
5285;SDS011;2665;53.112;7.358;2023-12-20T10:41:12;6.90;;;1.33;;
5285;SDS011;2665;53.112;7.358;2023-12-20T10:43:42;2.93;;;0.70;;
5285;SDS011;2665;53.112;7.358;2023-12-20T10:46:08;3.77;;;0.90;;
5285;SDS011;2665;53.112;7.358;2023-12-20T10:48:34;8.83;;;0.80;;
5285;SDS011;2665;53.112;7.358;2023-12-20T10:51:00;2.70;;;1.00;;
5285;SDS011;2665;53.112;7.358;2023-12-20T10:53:27;7.90;;;1.40;;
5285;SDS011;2665;53.112;7.358;2023-12-20T10:55:55;9.83;;;1.10;;
5285;SDS011;2665;53.112;7.358;2023-12-20T10:58:24;3.93;;;1.20;;
5285;SDS011;2665;53.112;7.358;2023-12-20T11:00:52;9.53;;;1.43;;
5285;SDS011;2665;53.112;7.358;2023-12-20T11:03:24;4.47;;;1.40;;
5285;SDS011;2665;53.112;7.358;2023-12-20T11:06:04;10.20;;;1.27;;
5285;SDS011;2665;53.112;7.358;2023-12-20T11:08:36;3.93;;;1.00;;
5285;SDS011;2665;53.112;7.358;2023-12-20T11:11:09;6.67;;;1.43;;
5285;SDS011;2665;53.112;7.358;2023-12-20T11:13:40;4.83;;;1.30;;
5285;SDS011;2665;53.112;7.358;2023-12-20T11:16:09;3.57;;;1.10;;
5285;SDS011;2665;53.112;7.358;2023-12-20T11:18:35;3.30;;;1.00;;
5285;SDS011;2665;53.112;7.358;2023-12-20T11:21:04;3.10;;;0.80;;
5285;SDS011;2665;53.112;7.358;2023-12-20T11:23:31;2.60;;;0.90;;
5285;SDS011;2665;53.112;7.358;2023-12-20T11:26:01;3.37;;;1.00;;
5285;SDS011;2665;53.112;7.358;2023-12-20T11:28:27;5.13;;;1.20;;
5285;SDS011;2665;53.112;7.358;2023-12-20T11:30:55;3.70;;;1.00;;
5285;SDS011;2665;53.112;7.358;2023-12-20T11:33:22;4.57;;;1.87;;
5285;SDS011;2665;53.112;7.358;2023-12-20T11:35:48;6.37;;;1.10;;
5285;SDS011;2665;53.112;7.358;2023-12-20T11:38:14;7.53;;;1.00;;
5285;SDS011;2665;53.112;7.358;2023-12-20T11:40:41;11.53;;;1.10;;
5285;SDS011;2665;53.112;7.358;2023-12-20T11:43:08;4.43;;;0.90;;
5285;SDS011;2665;53.112;7.358;2023-12-20T11:45:34;8.83;;;1.30;;
5285;SDS011;2665;53.112;7.358;2023-12-20T11:48:01;16.97;;;1.03;;
5285;SDS011;2665;53.112;7.358;2023-12-20T11:50:27;8.43;;;1.20;;
5285;SDS011;2665;53.112;7.358;2023-12-20T11:52:55;5.10;;;1.20;;
5285;SDS011;2665;53.112;7.358;2023-12-20T11:55:25;5.63;;;1.40;;
5285;SDS011;2665;53.112;7.358;2023-12-20T11:57:51;7.10;;;1.13;;
5285;SDS011;2665;53.112;7.358;2023-12-20T12:00:18;3.57;;;1.10;;
5285;SDS011;2665;53.112;7.358;2023-12-20T12:02:54;2.30;;;0.77;;
5285;SDS011;2665;53.112;7.358;2023-12-20T12:05:21;5.07;;;1.33;;
5285;SDS011;2665;53.112;7.358;2023-12-20T12:07:47;8.57;;;1.33;;
5285;SDS011;2665;53.112;7.358;2023-12-20T12:10:13;5.93;;;1.60;;
5285;SDS011;2665;53.112;7.358;2023-12-20T12:12:39;9.43;;;1.23;;
5285;SDS011;2665;53.112;7.358;2023-12-20T12:15:06;3.00;;;0.70;;
5285;SDS011;2665;53.112;7.358;2023-12-20T12:17:32;10.40;;;1.80;;
5285;SDS011;2665;53.112;7.358;2023-12-20T12:20:05;7.83;;;1.40;;
5285;SDS011;2665;53.112;7.358;2023-12-20T12:22:34;3.43;;;1.03;;
5285;SDS011;2665;53.112;7.358;2023-12-20T12:25:11;3.57;;;1.33;;
5285;SDS011;2665;53.112;7.358;2023-12-20T12:27:39;9.40;;;1.97;;
5285;SDS011;2665;53.112;7.358;2023-12-20T12:30:05;5.93;;;1.07;;
5285;SDS011;2665;53.112;7.358;2023-12-20T12:32:35;4.80;;;1.50;;
5285;SDS011;2665;53.112;7.358;2023-12-20T12:35:05;3.50;;;1.10;;
5285;SDS011;2665;53.112;7.358;2023-12-20T12:37:37;2.87;;;1.07;;
5285;SDS011;2665;53.112;7.358;2023-12-20T12:40:04;3.13;;;1.30;;
5285;SDS011;2665;53.112;7.358;2023-12-20T12:42:30;5.83;;;1.17;;
5285;SDS011;2665;53.112;7.358;2023-12-20T12:44:57;5.77;;;1.40;;
5285;SDS011;2665;53.112;7.358;2023-12-20T12:47:23;3.63;;;1.00;;
5285;SDS011;2665;53.112;7.358;2023-12-20T12:49:49;3.53;;;1.87;;
5285;SDS011;2665;53.112;7.358;2023-12-20T12:52:18;7.00;;;1.33;;
5285;SDS011;2665;53.112;7.358;2023-12-20T12:54:44;2.77;;;0.80;;
5285;SDS011;2665;53.112;7.358;2023-12-20T12:57:10;7.07;;;1.27;;
5285;SDS011;2665;53.112;7.358;2023-12-20T12:59:37;4.63;;;1.73;;
5285;SDS011;2665;53.112;7.358;2023-12-20T13:02:03;9.73;;;1.40;;
5285;SDS011;2665;53.112;7.358;2023-12-20T13:04:29;4.93;;;1.30;;
5285;SDS011;2665;53.112;7.358;2023-12-20T13:06:55;6.77;;;1.70;;
5285;SDS011;2665;53.112;7.358;2023-12-20T13:09:22;9.37;;;2.00;;
5285;SDS011;2665;53.112;7.358;2023-12-20T13:11:48;6.27;;;1.23;;
5285;SDS011;2665;53.112;7.358;2023-12-20T13:14:14;10.63;;;1.60;;
5285;SDS011;2665;53.112;7.358;2023-12-20T13:16:41;4.83;;;1.50;;
5285;SDS011;2665;53.112;7.358;2023-12-20T13:19:08;7.57;;;1.77;;
5285;SDS011;2665;53.112;7.358;2023-12-20T13:21:35;4.27;;;1.00;;
5285;SDS011;2665;53.112;7.358;2023-12-20T13:24:01;6.43;;;1.27;;
5285;SDS011;2665;53.112;7.358;2023-12-20T13:26:27;4.93;;;1.43;;
5285;SDS011;2665;53.112;7.358;2023-12-20T13:28:53;2.57;;;1.10;;
5285;SDS011;2665;53.112;7.358;2023-12-20T13:31:19;11.33;;;1.20;;
5285;SDS011;2665;53.112;7.358;2023-12-20T13:33:46;3.60;;;0.77;;
5285;SDS011;2665;53.112;7.358;2023-12-20T13:36:12;5.47;;;1.07;;
5285;SDS011;2665;53.112;7.358;2023-12-20T13:38:38;5.80;;;1.33;;
5285;SDS011;2665;53.112;7.358;2023-12-20T13:41:04;6.83;;;1.00;;
5285;SDS011;2665;53.112;7.358;2023-12-20T13:43:31;7.27;;;1.37;;
5285;SDS011;2665;53.112;7.358;2023-12-20T13:45:58;8.07;;;1.10;;
5285;SDS011;2665;53.112;7.358;2023-12-20T13:48:24;3.30;;;1.20;;
5285;SDS011;2665;53.112;7.358;2023-12-20T13:50:50;4.90;;;1.13;;
5285;SDS011;2665;53.112;7.358;2023-12-20T13:53:16;4.23;;;1.40;;
5285;SDS011;2665;53.112;7.358;2023-12-20T13:55:42;9.63;;;1.67;;
5285;SDS011;2665;53.112;7.358;2023-12-20T13:58:08;7.77;;;1.50;;
5285;SDS011;2665;53.112;7.358;2023-12-20T14:00:35;6.10;;;1.43;;
5285;SDS011;2665;53.112;7.358;2023-12-20T14:03:01;5.33;;;1.17;;
5285;SDS011;2665;53.112;7.358;2023-12-20T14:05:28;9.70;;;1.40;;
5285;SDS011;2665;53.112;7.358;2023-12-20T14:07:54;2.80;;;1.00;;
5285;SDS011;2665;53.112;7.358;2023-12-20T14:10:22;10.83;;;1.27;;
5285;SDS011;2665;53.112;7.358;2023-12-20T14:12:48;6.20;;;1.53;;
5285;SDS011;2665;53.112;7.358;2023-12-20T14:15:14;3.77;;;1.03;;
5285;SDS011;2665;53.112;7.358;2023-12-20T14:17:41;5.33;;;0.90;;
5285;SDS011;2665;53.112;7.358;2023-12-20T14:20:07;7.57;;;1.50;;
5285;SDS011;2665;53.112;7.358;2023-12-20T14:22:34;11.60;;;1.13;;
5285;SDS011;2665;53.112;7.358;2023-12-20T14:25:02;13.47;;;2.30;;
5285;SDS011;2665;53.112;7.358;2023-12-20T14:27:28;5.30;;;1.33;;
5285;SDS011;2665;53.112;7.358;2023-12-20T14:29:54;8.10;;;1.60;;
5285;SDS011;2665;53.112;7.358;2023-12-20T14:32:20;7.00;;;1.70;;
5285;SDS011;2665;53.112;7.358;2023-12-20T14:34:46;6.03;;;1.10;;
5285;SDS011;2665;53.112;7.358;2023-12-20T14:37:13;4.60;;;1.20;;
5285;SDS011;2665;53.112;7.358;2023-12-20T14:39:39;8.07;;;1.30;;
5285;SDS011;2665;53.112;7.358;2023-12-20T14:42:09;4.50;;;1.07;;
5285;SDS011;2665;53.112;7.358;2023-12-20T14:44:38;2.57;;;0.87;;
5285;SDS011;2665;53.112;7.358;2023-12-20T14:47:05;5.63;;;1.17;;
5285;SDS011;2665;53.112;7.358;2023-12-20T14:49:31;5.30;;;1.00;;
5285;SDS011;2665;53.112;7.358;2023-12-20T14:51:57;3.93;;;1.00;;
5285;SDS011;2665;53.112;7.358;2023-12-20T14:54:24;6.23;;;1.20;;
5285;SDS011;2665;53.112;7.358;2023-12-20T14:56:50;5.23;;;1.30;;
5285;SDS011;2665;53.112;7.358;2023-12-20T14:59:16;7.10;;;1.97;;
5285;SDS011;2665;53.112;7.358;2023-12-20T15:01:45;6.00;;;1.07;;
5285;SDS011;2665;53.112;7.358;2023-12-20T15:04:11;3.70;;;0.93;;
5285;SDS011;2665;53.112;7.358;2023-12-20T15:06:38;2.00;;;1.00;;
5285;SDS011;2665;53.112;7.358;2023-12-20T15:09:04;4.33;;;1.23;;